Terminal Aerodrome Forecast
Issued by NWS

Home | Current Version | Previous Version | Text Only | Print | Product List | Glossary On
Versions: 1 2 3 4 5 6 7 8 9 10 11 12 13 14 15
000
FTUS45 KGJT 041120
TAFVEL
TAF
KVEL 041120Z 0412/0512 VRB04KT P6SM SKC
     FM041700 22005KT P6SM FEW250
     FM050400 34004KT P6SM FEW250=

USA.gov is the U.S. government's official web portal to all federal, state and local government web resources and services.